Time;durP1;ratioP1;P1;durP2;ratioP2;P2;SDS_P1;SDS_P2;PMS_P1;PMS_P2;Temp;Humidity;BMP_temperature;BMP_pressure;BME280_temperature;BME280_humidity;BME280_pressure;Samples;Min_cycle;Max_cycle;Signal;HPM_P1;HPM_P2
2020/12/31 00:01:22;;;;;;;11.75;6.93;;;5.80;92.30;;;6.00;75.50;99322.75;5075277;28;20044;-82
2020/12/31 00:03:48;;;;;;;16.65;6.63;;;5.80;92.20;;;6.03;75.70;99319.66;5074717;28;20119;-81
2020/12/31 00:06:17;;;;;;;13.18;7.05;;;5.80;92.20;;;6.03;75.69;99308.84;5075976;28;20610;-81
2020/12/31 00:08:44;;;;;;;11.88;6.65;;;5.80;92.10;;;6.02;75.24;99310.72;5078707;28;20408;-82
2020/12/31 00:11:11;;;;;;;12.85;6.68;;;5.80;91.80;;;6.03;75.71;99316.94;5079068;28;20078;-81
2020/12/31 00:13:38;;;;;;;11.82;6.45;;;5.80;91.80;;;6.01;74.06;99309.03;5078619;28;20416;-82
2020/12/31 00:16:05;;;;;;;12.65;6.82;;;5.80;91.20;;;5.96;74.97;99316.00;5078881;28;20072;-81
2020/12/31 00:18:32;;;;;;;11.40;6.35;;;5.80;91.00;;;5.98;75.54;99319.38;5078441;28;20084;-82
2020/12/31 00:20:58;;;;;;;13.30;6.60;;;5.80;91.10;;;5.99;74.89;99307.53;5078494;28;20507;-82
2020/12/31 00:23:26;;;;;;;12.18;6.70;;;5.90;91.20;;;5.94;75.12;99315.31;5078642;28;20098;-82
2020/12/31 00:25:54;;;;;;;12.73;6.50;;;5.90;90.90;;;5.90;75.53;99311.31;5078765;28;20070;-82
2020/12/31 00:28:21;;;;;;;11.80;6.68;;;5.90;90.80;;;5.94;75.85;99307.22;5078866;28;20762;-81
2020/12/31 00:30:50;;;;;;;12.30;6.80;;;5.90;91.00;;;6.01;75.51;99310.91;5079054;28;20067;-82
2020/12/31 00:33:18;;;;;;;10.85;6.53;;;5.90;90.90;;;6.02;75.39;99316.13;5078362;28;20104;-82
2020/12/31 00:35:45;;;;;;;11.73;6.63;;;5.90;91.20;;;6.02;75.34;99310.72;5078668;28;20087;-82
2020/12/31 00:38:12;;;;;;;12.35;7.10;;;5.90;91.30;;;5.98;75.38;99312.13;5077736;28;20097;-81
2020/12/31 00:40:39;;;;;;;17.15;7.72;;;5.90;91.10;;;5.99;75.43;99315.66;5079208;28;20548;-82
2020/12/31 00:43:06;;;;;;;13.63;7.60;;;5.90;90.80;;;5.94;75.40;99313.47;5078568;28;20080;-81
2020/12/31 00:45:33;;;;;;;13.05;7.38;;;5.90;90.60;;;5.94;75.36;99315.31;5078550;28;20045;-81
2020/12/31 00:48:00;;;;;;;12.13;7.45;;;5.90;91.00;;;5.93;75.82;99308.25;5078085;28;20112;-82
2020/12/31 00:50:26;;;;;;;12.75;7.60;;;5.90;91.20;;;5.94;76.22;99307.22;5077024;28;20523;-82
2020/12/31 00:52:53;;;;;;;16.15;8.68;;;5.90;91.40;;;5.95;75.91;99298.09;5077383;28;20071;-82
2020/12/31 00:55:20;;;;;;;13.10;7.78;;;5.90;91.50;;;5.87;76.13;99305.25;5076603;28;20048;-81
2020/12/31 00:57:51;;;;;;;13.20;7.38;;;5.90;91.50;;;5.90;76.45;99316.72;5076059;28;20123;-82
2020/12/31 01:00:18;;;;;;;13.32;7.10;;;5.90;91.40;;;5.92;76.51;99303.88;5076773;28;20072;-82
2020/12/31 01:03:07;;;;;;;13.38;7.55;;;5.90;91.50;;;5.96;76.32;99306.06;5078300;28;20048;-81
2020/12/31 01:05:34;;;;;;;15.38;7.65;;;5.90;91.60;;;5.98;76.05;99297.78;5078022;28;20068;-82
2020/12/31 01:08:01;;;;;;;13.25;7.75;;;5.80;91.70;;;5.93;75.58;99298.28;5077538;28;20045;-82
2020/12/31 01:10:28;;;;;;;12.25;7.63;;;5.80;91.50;;;5.95;76.21;99292.72;5077642;28;20129;-82
2020/12/31 01:12:56;;;;;;;13.82;7.82;;;5.80;91.80;;;5.92;76.03;99288.53;5078401;28;20127;-82
2020/12/31 01:15:23;;;;;;;14.15;7.72;;;5.80;91.60;;;5.94;75.83;99291.00;5077959;28;20045;-81
2020/12/31 01:17:49;;;;;;;12.13;7.72;;;5.80;91.60;;;5.91;76.41;99296.81;5076361;28;20627;-82
2020/12/31 01:20:16;;;;;;;13.48;7.18;;;5.80;91.60;;;5.90;75.52;99290.53;5077805;28;20075;-82
2020/12/31 01:22:43;;;;;;;13.00;7.63;;;5.80;91.60;;;5.84;76.19;99286.72;5077911;28;20060;-81
2020/12/31 01:25:10;;;;;;;12.80;8.40;;;5.80;91.70;;;5.88;75.91;99290.75;5077829;28;20047;-81
2020/12/31 01:27:39;;;;;;;13.02;8.00;;;5.80;91.80;;;5.90;76.21;99282.44;5077346;28;20136;-81
2020/12/31 01:30:06;;;;;;;14.45;8.73;;;5.80;91.80;;;5.92;76.18;99290.38;5077375;28;20500;-81
2020/12/31 01:32:33;;;;;;;12.75;8.20;;;5.70;92.20;;;5.84;75.96;99294.81;5076985;28;20040;-81
2020/12/31 01:35:00;;;;;;;16.02;8.40;;;5.70;92.20;;;5.87;75.99;99285.53;5077507;28;20047;-81
2020/12/31 01:37:27;;;;;;;16.85;8.93;;;5.70;92.20;;;5.88;76.02;99282.66;5077006;28;20075;-82
2020/12/31 01:39:53;;;;;;;15.68;9.48;;;5.70;92.20;;;5.88;75.70;99285.34;5076946;28;20128;-82
2020/12/31 01:42:20;;;;;;;14.02;8.55;;;5.70;92.20;;;5.88;76.42;99282.66;5076785;28;20060;-82
2020/12/31 01:44:48;;;;;;;14.55;8.50;;;5.70;92.40;;;5.87;76.24;99283.66;5060064;28;20183;-81
2020/12/31 01:47:16;;;;;;;14.63;8.70;;;5.60;92.60;;;5.85;76.76;99288.41;5068390;28;20540;-82
2020/12/31 01:49:45;;;;;;;13.68;8.57;;;5.70;92.70;;;5.86;76.82;99279.31;5076749;28;20095;-81
2020/12/31 01:52:14;;;;;;;16.85;8.48;;;5.60;92.80;;;5.80;76.34;99288.13;5076519;28;20045;-82
2020/12/31 01:54:46;;;;;;;16.45;8.88;;;5.60;92.30;;;5.82;76.37;99282.53;5076400;28;20051;-82
2020/12/31 01:57:12;;;;;;;16.25;9.10;;;5.60;92.80;;;5.84;76.56;99284.03;5076887;28;20037;-81
2020/12/31 01:59:39;;;;;;;15.38;9.57;;;5.60;92.70;;;5.84;76.44;99281.31;5067511;28;20108;-82
2020/12/31 02:02:08;;;;;;;14.90;8.85;;;5.60;93.00;;;5.81;76.40;99286.28;5075760;28;20055;-81
2020/12/31 02:04:36;;;;;;;14.70;9.02;;;5.60;92.80;;;5.78;76.87;99275.84;5076246;28;20063;-81
2020/12/31 02:07:03;;;;;;;17.58;9.02;;;5.60;92.80;;;5.84;76.70;99284.03;5075889;28;20112;-82
2020/12/31 02:09:30;;;;;;;16.70;9.52;;;5.70;93.40;;;5.87;76.62;99282.84;5076129;28;20044;-81
2020/12/31 02:12:02;;;;;;;13.88;8.40;;;5.60;93.30;;;5.86;77.08;99279.31;5076124;28;20068;-82
2020/12/31 02:14:29;;;;;;;15.02;8.48;;;5.60;93.20;;;5.83;76.77;99279.66;5074711;28;20064;-82
2020/12/31 02:16:56;;;;;;;14.38;8.45;;;5.60;93.20;;;5.81;77.03;99272.78;5074780;28;20579;-82
2020/12/31 02:19:23;;;;;;;13.57;8.15;;;5.70;93.20;;;5.82;77.11;99269.88;5071869;28;20079;-82
2020/12/31 02:21:52;;;;;;;12.52;8.07;;;5.60;93.20;;;5.77;76.85;99268.75;5065425;28;20165;-82
2020/12/31 02:24:20;;;;;;;13.93;8.60;;;5.70;92.90;;;5.76;76.96;99276.00;5068460;28;20114;-82
2020/12/31 02:26:49;;;;;;;15.63;8.52;;;5.70;93.00;;;5.80;77.33;99268.38;5059063;28;20076;-82
2020/12/31 02:29:17;;;;;;;13.93;8.32;;;5.70;93.10;;;5.79;77.31;99270.25;5058186;28;20096;-82
2020/12/31 02:31:47;;;;;;;14.40;9.55;;;5.70;93.30;;;5.77;77.79;99268.75;5075851;28;20116;-82
2020/12/31 02:34:14;;;;;;;15.82;8.57;;;5.70;93.30;;;5.83;77.12;99265.34;5055713;28;20048;-81
2020/12/31 02:36:41;;;;;;;15.88;9.68;;;5.70;93.30;;;5.84;77.04;99270.53;5055878;28;20120;-82
2020/12/31 02:39:11;;;;;;;12.75;8.27;;;5.70;93.10;;;5.78;77.52;99265.88;5055659;28;20080;-82
2020/12/31 02:41:38;;;;;;;16.58;9.02;;;5.70;93.20;;;5.78;77.43;99262.34;5055800;28;20083;-82
2020/12/31 02:44:06;;;;;;;12.80;7.65;;;5.70;93.30;;;5.75;77.18;99265.38;5066417;28;20194;-82
2020/12/31 02:46:33;;;;;;;12.40;7.82;;;5.70;93.30;;;5.73;77.47;99267.44;5068694;28;20075;-82
2020/12/31 02:49:00;;;;;;;13.75;8.20;;;5.70;93.00;;;5.77;77.33;99264.22;5055156;28;20084;-82
2020/12/31 02:51:27;;;;;;;14.20;8.15;;;5.80;93.20;;;5.79;77.65;99251.34;5055149;28;20044;-82
2020/12/31 02:53:55;;;;;;;15.07;8.00;;;5.80;93.00;;;5.82;77.33;99250.97;5055421;28;20064;-81
2020/12/31 02:56:24;;;;;;;13.60;8.00;;;5.80;93.10;;;5.80;77.59;99253.03;5055957;28;20135;-81
2020/12/31 02:58:52;;;;;;;13.35;8.27;;;5.80;92.90;;;5.81;77.34;99254.72;5054592;28;20100;-82
2020/12/31 03:01:20;;;;;;;13.05;8.32;;;5.80;92.70;;;5.80;76.87;99247.63;5055019;28;20068;-82
2020/12/31 03:03:47;;;;;;;12.20;7.38;;;5.80;92.40;;;5.77;77.08;99245.31;5054867;28;20186;-82
2020/12/31 03:06:15;;;;;;;16.17;8.52;;;5.80;92.20;;;5.82;77.21;99250.13;5054793;28;20100;-81
2020/12/31 03:08:42;;;;;;;14.90;7.72;;;5.80;92.40;;;5.80;76.81;99250.31;5054777;28;20778;-81
2020/12/31 03:11:14;;;;;;;13.82;8.32;;;5.80;92.60;;;5.72;77.57;99254.97;5055125;28;20140;-82
2020/12/31 03:13:41;;;;;;;13.65;7.93;;;5.80;92.20;;;5.75;77.33;99252.75;5055281;28;20108;-82
2020/12/31 03:16:08;;;;;;;12.23;7.55;;;5.80;92.30;;;5.80;77.11;99258.41;5054769;28;20593;-82
2020/12/31 03:18:35;;;;;;;13.00;7.97;;;5.80;92.20;;;5.80;77.24;99252.19;5054654;28;20048;-82
2020/12/31 03:21:02;;;;;;;13.77;8.27;;;5.80;92.30;;;5.81;76.97;99260.09;5055103;28;20076;-82
2020/12/31 03:23:29;;;;;;;13.55;8.13;;;5.80;92.20;;;5.80;77.16;99247.63;5055147;28;20580;-81
2020/12/31 03:25:55;;;;;;;13.85;8.57;;;5.80;92.20;;;5.78;76.95;99257.78;5054711;28;20072;-81
2020/12/31 03:28:22;;;;;;;15.13;7.90;;;6.00;92.30;;;5.67;76.92;99250.13;5054198;28;20136;-82
2020/12/31 03:30:50;;;;;;;12.68;7.65;;;5.80;91.80;;;5.71;76.83;99250.59;5055050;28;20128;-82
2020/12/31 03:33:18;;;;;;;11.80;7.85;;;5.80;91.80;;;5.65;77.06;99246.78;5054608;28;20127;-82
2020/12/31 03:35:46;;;;;;;14.18;7.95;;;5.80;91.90;;;5.73;77.44;99252.09;5054644;28;20108;-82
2020/12/31 03:38:15;;;;;;;13.50;7.85;;;5.80;92.00;;;5.73;77.07;99241.31;5054717;28;20062;-81
2020/12/31 03:40:42;;;;;;;13.50;8.10;;;5.80;92.00;;;5.75;76.80;99235.69;5053553;28;20532;-81
2020/12/31 03:43:10;;;;;;;14.07;8.27;;;5.80;91.80;;;5.76;76.68;99235.53;5054638;28;20139;-82
2020/12/31 03:45:37;;;;;;;14.15;8.00;;;5.70;92.20;;;5.80;76.92;99231.41;5054719;28;20072;-81
2020/12/31 03:48:06;;;;;;;13.13;7.57;;;5.70;92.20;;;5.80;75.75;99236.00;5053978;28;20103;-82
2020/12/31 03:50:33;;;;;;;14.20;8.52;;;5.70;92.30;;;5.79;77.06;99229.75;5054471;28;20477;-81
2020/12/31 03:52:59;;;;;;;14.30;9.20;;;5.70;92.30;;;5.72;76.75;99228.81;5054343;28;20100;-82
2020/12/31 03:55:26;;;;;;;13.73;8.30;;;5.70;92.20;;;5.73;76.60;99230.50;5055288;28;20136;-82
2020/12/31 03:57:53;;;;;;;13.40;8.35;;;5.60;92.10;;;5.74;76.76;99218.69;5053741;28;20084;-81
2020/12/31 04:00:20;;;;;;;15.50;8.65;;;5.60;92.20;;;5.72;76.84;99215.31;5060875;28;20131;-81
2020/12/31 04:02:46;;;;;;;14.25;8.43;;;5.50;92.40;;;5.73;76.72;99211.63;5073379;28;20086;-81
2020/12/31 04:05:14;;;;;;;15.77;9.50;;;5.60;92.60;;;5.75;76.75;99216.81;5074743;28;20735;-82
2020/12/31 04:07:41;;;;;;;16.83;9.20;;;5.60;92.50;;;5.69;76.49;99207.59;5073741;28;20051;-82
2020/12/31 04:10:07;;;;;;;15.15;8.90;;;5.60;92.40;;;5.70;76.72;99209.28;5074152;28;20469;-81
2020/12/31 04:12:34;;;;;;;19.25;9.75;;;5.50;92.80;;;5.71;77.15;99213.63;5074521;28;20072;-81
2020/12/31 04:15:01;;;;;;;16.00;9.57;;;5.60;93.10;;;5.75;76.49;99206.88;5074000;28;20128;-82
2020/12/31 04:17:28;;;;;;;15.98;9.73;;;5.50;93.10;;;5.79;76.85;99197.38;5073833;28;20097;-82
2020/12/31 04:19:54;;;;;;;17.92;10.18;;;5.70;93.20;;;5.77;76.39;99199.41;5074437;28;20056;-82
2020/12/31 04:22:22;;;;;;;15.70;9.27;;;5.50;92.90;;;5.71;76.32;99194.75;5074482;28;20040;-82
2020/12/31 04:24:50;;;;;;;15.23;9.40;;;5.50;92.90;;;5.67;76.85;99193.44;5074079;28;20072;-82
2020/12/31 04:27:17;;;;;;;17.88;9.70;;;5.50;93.00;;;5.66;76.83;99192.59;5073941;28;20080;-82
2020/12/31 04:29:44;;;;;;;13.13;8.85;;;5.70;93.20;;;5.67;76.82;99188.03;5072857;28;20049;-82
2020/12/31 04:32:11;;;;;;;14.93;9.38;;;5.50;92.90;;;5.70;77.05;99187.69;5074547;28;20132;-82
2020/12/31 04:34:37;;;;;;;15.25;8.93;;;5.50;92.90;;;5.67;76.78;99183.50;5075089;28;20098;-81
2020/12/31 04:37:04;;;;;;;13.43;8.32;;;5.50;92.90;;;5.65;76.87;99179.28;5073165;28;20076;-81
2020/12/31 04:39:32;;;;;;;15.43;8.77;;;5.50;92.90;;;5.65;76.84;99182.00;5073829;28;20048;-81
2020/12/31 04:41:59;;;;;;;15.55;8.43;;;5.50;93.00;;;5.69;77.08;99180.59;5074083;28;20115;-82
2020/12/31 04:44:26;;;;;;;16.20;9.02;;;5.50;93.20;;;5.69;76.78;99180.59;5074482;28;20519;-81
2020/12/31 04:46:57;;;;;;;12.25;8.20;;;5.50;93.10;;;5.73;76.66;99179.22;5073693;28;20147;-81
2020/12/31 04:49:34;;;;;;;15.18;8.95;;;5.50;93.10;;;5.74;76.50;99178.19;5073622;28;20094;-82
2020/12/31 04:52:00;;;;;;;14.23;8.32;;;5.50;93.10;;;5.71;76.44;99185.81;5073097;28;20117;-82
2020/12/31 04:54:28;;;;;;;12.88;8.20;;;5.40;93.00;;;5.73;76.65;99181.06;5077631;28;20104;-82
2020/12/31 04:56:55;;;;;;;12.82;8.38;;;5.40;93.20;;;5.69;76.66;99175.19;5077363;28;20772;-82
2020/12/31 04:59:22;;;;;;;14.27;8.65;;;5.40;93.40;;;5.72;76.81;99174.84;5077625;28;20407;-82
2020/12/31 05:01:49;;;;;;;13.80;8.60;;;5.40;93.50;;;5.74;76.98;99182.75;5078215;28;20079;-82
2020/12/31 05:04:15;;;;;;;11.60;7.38;;;5.40;93.50;;;5.73;76.84;99181.06;5077356;28;20040;-82
2020/12/31 05:06:45;;;;;;;11.38;7.38;;;5.40;93.40;;;5.66;76.77;99181.81;5077289;28;20145;-81
2020/12/31 05:09:16;;;;;;;12.63;6.93;;;5.50;93.50;;;5.67;76.39;99182.66;5077240;28;20120;-81
2020/12/31 05:11:45;;;;;;;10.93;7.30;;;5.40;92.90;;;5.64;76.56;99185.72;5077490;28;20127;-81
2020/12/31 05:14:13;;;;;;;10.30;6.88;;;5.70;92.90;;;5.68;76.00;99178.94;5077506;28;20063;-82
2020/12/31 05:16:40;;;;;;;10.90;6.85;;;5.60;92.80;;;5.67;76.52;99182.66;5075978;28;20751;-82
2020/12/31 05:19:21;;;;;;;9.38;6.55;;;5.40;93.00;;;5.70;76.15;99176.88;5077187;28;20447;-81
2020/12/31 05:21:48;;;;;;;11.13;6.72;;;5.40;93.00;;;5.61;76.29;99178.00;5077392;28;20124;-82
2020/12/31 05:24:16;;;;;;;9.98;6.13;;;5.30;92.90;;;5.59;76.05;99180.88;5077288;28;20075;-81
2020/12/31 05:26:42;;;;;;;9.63;6.10;;;5.30;92.60;;;5.59;75.96;99182.75;5076693;28;20104;-82
2020/12/31 05:29:09;;;;;;;11.02;6.53;;;5.30;92.50;;;5.54;76.27;99180.63;5076405;28;20702;-81
2020/12/31 05:31:55;;;;;;;9.77;6.32;;;5.30;92.90;;;5.54;76.16;99177.06;5076499;28;20091;-82
2020/12/31 05:34:31;;;;;;;9.50;6.35;;;5.30;93.00;;;5.59;76.28;99180.88;5076801;28;20064;-82
2020/12/31 05:37:14;;;;;;;9.70;6.10;;;5.30;93.00;;;5.59;76.25;99174.66;5076914;28;20135;-82
2020/12/31 05:40:00;;;;;;;10.10;6.28;;;5.30;93.20;;;5.54;76.38;99180.63;5077081;28;20053;-81
2020/12/31 05:42:29;;;;;;;9.90;6.35;;;5.30;93.10;;;5.59;76.33;99180.03;5077571;28;20500;-82
2020/12/31 05:45:10;;;;;;;9.55;6.57;;;5.30;93.10;;;5.58;76.60;99183.75;5077274;28;20396;-81
2020/12/31 05:47:48;;;;;;;9.88;5.72;;;5.30;93.40;;;5.56;76.31;99177.72;5076115;28;20495;-82
2020/12/31 05:50:21;;;;;;;9.70;6.07;;;5.20;93.00;;;5.57;76.47;99184.78;5076369;28;20087;-81
2020/12/31 05:52:48;;;;;;;8.85;5.30;;;5.30;93.30;;;5.57;76.19;99182.09;5076654;28;20044;-81
2020/12/31 05:55:18;;;;;;;8.35;5.60;;;5.30;93.30;;;5.55;76.17;99184.97;5076452;28;20040;-82
2020/12/31 05:57:48;;;;;;;10.65;6.38;;;5.30;93.20;;;5.50;76.47;99181.97;5075634;28;20037;-82
2020/12/31 06:00:18;;;;;;;9.50;6.18;;;5.20;93.10;;;5.46;76.34;99181.53;5076771;28;20472;-82
2020/12/31 06:02:49;;;;;;;9.82;5.70;;;5.30;93.10;;;5.51;76.58;99180.13;5076938;28;20068;-82
2020/12/31 06:05:17;;;;;;;8.73;5.45;;;5.20;92.90;;;5.42;76.81;99188.31;5075229;28;20542;-82
2020/12/31 06:07:48;;;;;;;9.25;6.07;;;5.30;92.90;;;5.40;76.71;99181.41;5075423;28;20041;-82
2020/12/31 06:10:20;;;;;;;9.10;5.85;;;5.30;92.90;;;5.45;76.75;99179.84;5076183;28;20080;-81
2020/12/31 06:12:53;;;;;;;11.40;6.30;;;5.20;93.10;;;5.48;76.94;99184.88;5076310;28;20096;-82
2020/12/31 06:15:26;;;;;;;8.77;5.65;;;5.30;93.40;;;5.52;76.43;99181.81;5076250;28;20135;-82
2020/12/31 06:17:55;;;;;;;8.40;5.50;;;5.30;93.30;;;5.54;76.54;99183.31;5074556;28;20071;-82
2020/12/31 06:20:23;;;;;;;8.52;5.32;;;5.20;93.30;;;5.55;76.31;99179.56;5075525;28;20047;-82
2020/12/31 06:23:06;;;;;;;8.25;5.38;;;5.20;93.30;;;5.56;76.23;99181.25;5075785;28;20122;-82
2020/12/31 06:25:42;;;;;;;8.48;5.60;;;5.20;93.20;;;5.54;76.59;99172.50;5060938;28;20057;-81
2020/12/31 06:28:15;;;;;;;8.95;5.50;;;5.20;93.50;;;5.46;76.47;99176.13;5055283;28;20135;-82
2020/12/31 06:30:45;;;;;;;9.70;5.53;;;5.30;93.40;;;5.51;76.71;99175.56;5063293;28;20056;-82
2020/12/31 06:33:23;;;;;;;7.93;5.18;;;5.30;93.60;;;5.54;76.74;99183.31;5067534;28;20440;-81
2020/12/31 06:35:58;;;;;;;8.00;5.35;;;5.30;93.70;;;5.51;76.41;99177.44;5075827;28;20421;-81
2020/12/31 06:38:33;;;;;;;9.00;4.80;;;5.20;93.40;;;5.55;76.82;99173.34;5075361;28;20135;-81
2020/12/31 06:41:00;;;;;;;8.63;4.75;;;5.30;93.70;;;5.55;76.58;99171.47;5075014;28;20132;-82
2020/12/31 06:43:32;;;;;;;7.85;4.93;;;5.20;93.60;;;5.53;76.73;99183.50;5075979;28;20518;-82
2020/12/31 06:45:59;;;;;;;7.63;4.75;;;5.30;93.70;;;5.50;76.77;99179.28;5074129;28;20032;-82
2020/12/31 06:48:37;;;;;;;8.23;4.82;;;5.30;93.60;;;5.51;76.88;99183.66;5055346;28;20133;-81
2020/12/31 06:51:07;;;;;;;9.05;4.97;;;5.30;93.60;;;5.49;76.85;99178.44;5055626;28;20642;-81
2020/12/31 06:53:36;;;;;;;8.88;4.38;;;5.50;93.80;;;5.51;77.03;99182.84;5055579;28;20144;-82
2020/12/31 06:56:05;;;;;;;7.18;4.53;;;5.30;93.80;;;5.52;76.92;99179.97;5055223;28;20087;-82
2020/12/31 06:58:32;;;;;;;7.40;4.85;;;5.30;93.60;;;5.54;76.64;99177.91;5055557;28;20404;-82
2020/12/31 07:01:00;;;;;;;7.35;4.43;;;5.30;93.50;;;5.54;77.06;99179.75;5055446;28;20049;-82
2020/12/31 07:03:47;;;;;;;7.40;4.63;;;5.30;93.60;;;5.54;76.71;99177.06;5053884;28;20092;-83
2020/12/31 07:06:32;;;;;;;6.43;4.00;;;5.30;93.50;;;5.58;76.65;99171.13;5055116;28;20057;-82
2020/12/31 07:09:31;;;;;;;6.07;3.92;;;5.20;93.10;;;5.53;76.69;99178.09;5054849;28;20566;-82
2020/12/31 07:12:00;;;;;;;6.47;4.35;;;5.20;93.20;;;5.53;76.83;99175.41;5071521;28;20079;-82
2020/12/31 07:14:29;;;;;;;6.57;4.22;;;5.20;93.40;;;5.52;76.78;99173.72;5055951;28;20477;-82
2020/12/31 07:17:03;;;;;;;6.45;4.28;;;5.20;93.60;;;5.49;76.83;99178.44;5054659;28;20084;-82
2020/12/31 07:19:41;;;;;;;7.88;4.65;;;5.20;93.10;;;5.53;76.72;99173.53;5055030;28;20056;-82
2020/12/31 07:22:20;;;;;;;7.82;4.60;;;5.20;93.80;;;5.55;76.87;99176.88;5055761;28;20071;-81
2020/12/31 07:24:53;;;;;;;7.38;4.18;;;5.20;93.60;;;5.55;76.51;99171.47;5055219;28;20075;-82
2020/12/31 07:27:26;;;;;;;6.40;4.18;;;5.20;94.00;;;5.60;77.05;99170.94;5055309;28;20080;-81
2020/12/31 07:30:13;;;;;;;7.22;4.38;;;5.20;94.00;;;5.60;76.79;99182.56;5054733;28;20460;-82
2020/12/31 07:33:02;;;;;;;6.68;4.18;;;5.20;94.10;;;5.61;76.51;99175.28;5055667;28;20048;-82
2020/12/31 07:35:37;;;;;;;6.53;4.18;;;5.20;94.00;;;5.62;76.71;99174.28;5054576;28;20056;-82
2020/12/31 07:38:09;;;;;;;7.55;4.82;;;5.20;94.00;;;5.55;76.57;99176.03;5055302;28;20104;-82
2020/12/31 07:40:40;;;;;;;6.38;4.10;;;5.10;93.60;;;5.55;76.68;99176.03;5056116;28;20041;-82
2020/12/31 07:43:09;;;;;;;6.97;4.15;;;5.20;93.70;;;5.55;76.47;99167.94;5055502;28;20055;-82
2020/12/31 07:45:37;;;;;;;9.65;5.22;;;5.20;93.90;;;5.52;76.45;99179.09;5055429;28;20041;-82
2020/12/31 07:48:04;;;;;;;13.65;6.63;;;5.20;93.60;;;5.53;76.83;99176.22;5055469;28;20043;-82
2020/12/31 07:50:31;;;;;;;10.20;5.25;;;5.20;93.70;;;5.54;76.61;99177.06;5055643;28;20051;-82
2020/12/31 07:52:59;;;;;;;12.70;6.30;;;5.20;93.50;;;5.42;76.53;99185.59;5055432;28;20255;-82
2020/12/31 07:55:27;;;;;;;11.38;5.80;;;5.20;93.20;;;5.50;76.92;99187.38;5055278;28;20132;-82
2020/12/31 07:57:54;;;;;;;8.73;4.35;;;5.20;93.60;;;5.46;76.84;99192.34;5054374;28;20044;-82
2020/12/31 08:00:22;;;;;;;6.63;3.90;;;5.40;93.80;;;5.54;76.75;99198.63;5055146;28;20041;-82
2020/12/31 08:02:52;;;;;;;6.22;3.60;;;5.20;93.70;;;5.54;76.93;99187.84;5070708;28;20048;-81
2020/12/31 08:05:21;;;;;;;6.40;3.70;;;5.20;93.80;;;5.56;76.89;99185.81;5067413;28;20519;-82
2020/12/31 08:07:53;;;;;;;6.95;3.75;;;5.20;93.80;;;5.58;76.88;99183.75;5073911;28;20083;-82
2020/12/31 08:10:21;;;;;;;7.15;3.45;;;5.20;94.00;;;5.55;76.30;99184.97;5074024;28;20575;-82
2020/12/31 08:12:58;;;;;;;8.13;3.72;;;5.30;93.80;;;5.54;76.98;99182.44;5073361;28;20044;-83
2020/12/31 08:15:26;;;;;;;5.78;3.38;;;5.20;93.80;;;5.58;76.98;99178.34;5072503;28;20036;-82
2020/12/31 08:17:57;;;;;;;5.85;3.80;;;5.20;94.10;;;5.59;77.21;99180.03;5074375;28;20063;-82
2020/12/31 08:20:29;;;;;;;6.10;3.78;;;5.40;94.30;;;5.60;76.93;99177.16;5072234;28;20677;-82
2020/12/31 08:22:58;;;;;;;5.47;3.42;;;5.20;94.30;;;5.61;76.94;99172.59;5062468;28;20537;-82
2020/12/31 08:25:31;;;;;;;4.65;3.08;;;5.20;94.10;;;5.59;76.84;99180.03;5071520;28;20120;-83
2020/12/31 08:28:04;;;;;;;6.22;3.40;;;5.30;94.20;;;5.49;76.94;99175.75;5071052;28;20104;-83
2020/12/31 08:30:34;;;;;;;5.88;3.17;;;5.30;93.90;;;5.46;76.95;99181.53;5071360;28;20040;-83
2020/12/31 08:33:02;;;;;;;4.53;2.75;;;5.30;93.50;;;5.46;77.45;99175.28;5074392;28;20667;-81
2020/12/31 08:35:31;;;;;;;6.60;3.00;;;5.30;93.70;;;5.54;77.19;99175.22;5068518;28;20078;-81
2020/12/31 08:38:10;;;;;;;5.60;3.10;;;5.30;93.90;;;5.58;76.35;99172.97;5068913;28;20581;-81
2020/12/31 08:40:44;;;;;;;5.15;3.03;;;5.30;93.70;;;5.59;76.92;99174.66;5069582;28;20497;-81
2020/12/31 08:43:19;;;;;;;5.28;3.10;;;5.30;94.10;;;5.60;77.17;99177.16;5057116;28;20045;-81
2020/12/31 08:45:47;;;;;;;6.40;3.75;;;5.30;94.50;;;5.47;76.94;99182.38;5066936;28;20053;-82
2020/12/31 08:48:22;;;;;;;4.90;2.95;;;5.30;93.80;;;5.53;77.22;99173.53;5068819;28;20098;-82
2020/12/31 08:51:04;;;;;;;6.28;3.42;;;5.30;93.90;;;5.56;77.01;99175.88;5074921;28;20171;-82
2020/12/31 08:53:32;;;;;;;5.80;3.58;;;5.30;94.10;;;5.53;77.09;99181.63;5073995;28;20131;-84
2020/12/31 08:55:59;;;;;;;8.20;3.33;;;5.40;93.90;;;5.55;76.98;99171.47;5073972;28;20041;-84
2020/12/31 08:58:29;;;;;;;5.63;3.33;;;5.40;93.50;;;5.53;76.85;99161.91;5071837;28;20115;-84
2020/12/31 09:00:56;;;;;;;5.55;3.50;;;5.40;93.20;;;5.53;77.27;99160.03;5066032;28;20195;-83
2020/12/31 09:03:24;;;;;;;6.30;3.72;;;5.30;93.60;;;5.60;77.11;99162.84;5054408;28;20056;-84
2020/12/31 09:05:55;;;;;;;7.45;4.10;;;5.30;93.60;;;5.56;77.13;99172.31;5054478;28;20037;-84
2020/12/31 09:08:22;;;;;;;6.70;4.13;;;5.30;93.40;;;5.55;76.80;99165.25;5054080;28;20138;-84
2020/12/31 09:11:05;;;;;;;6.72;4.47;;;5.40;93.50;;;5.56;76.83;99172.31;5054610;28;20045;-85
2020/12/31 09:13:36;;;;;;;6.25;4.32;;;5.40;93.50;;;5.59;77.25;99174.66;5053822;28;20438;-84
2020/12/31 09:16:11;;;;;;;7.70;4.78;;;5.40;93.60;;;5.59;77.13;99171.94;5051920;28;20053;-84
2020/12/31 09:18:38;;;;;;;8.45;4.85;;;5.40;93.50;;;5.64;76.98;99169.53;5051639;28;20052;-84
2020/12/31 09:21:05;;;;;;;7.30;4.78;;;5.40;93.50;;;5.67;76.70;99169.16;5053781;28;20489;-84
2020/12/31 09:23:32;;;;;;;7.75;5.20;;;5.50;94.00;;;5.62;77.17;99164.31;5053973;28;20051;-84
2020/12/31 09:25:59;;;;;;;8.60;5.28;;;5.50;93.60;;;5.66;76.91;99165.63;5054099;28;20123;-84
2020/12/31 09:28:27;;;;;;;8.80;5.65;;;5.50;93.30;;;5.66;76.95;99162.91;5054086;28;20731;-83
2020/12/31 09:30:55;;;;;;;8.43;5.70;;;5.50;93.40;;;5.66;77.45;99162.91;5054575;28;20529;-84
2020/12/31 09:33:25;;;;;;;10.27;5.57;;;5.50;93.50;;;5.61;76.83;99156.41;5053703;28;20119;-84
2020/12/31 09:35:52;;;;;;;10.77;5.75;;;5.60;93.20;;;5.61;77.04;99172.59;5057979;28;20070;-84
2020/12/31 09:38:19;;;;;;;9.88;5.90;;;5.60;93.10;;;5.66;77.66;99162.09;5065048;28;20616;-84
2020/12/31 09:40:46;;;;;;;8.75;5.88;;;5.60;93.50;;;5.72;77.36;99157.81;5059085;28;20123;-84
2020/12/31 09:43:16;;;;;;;9.07;5.63;;;5.60;93.30;;;5.75;77.26;99157.41;5064398;28;20059;-84
2020/12/31 09:45:44;;;;;;;9.50;5.28;;;5.70;93.40;;;5.73;77.19;99164.88;5061374;28;20134;-84
2020/12/31 09:48:10;;;;;;;11.10;6.53;;;5.70;93.30;;;5.67;77.33;99166.44;5061253;28;20467;-84
2020/12/31 09:50:37;;;;;;;10.98;6.43;;;5.70;92.80;;;5.68;77.43;99160.03;5070073;28;20056;-85
2020/12/31 09:53:04;;;;;;;11.75;7.68;;;5.80;93.20;;;5.67;77.38;99161.06;5069807;28;20045;-84
2020/12/31 09:55:30;;;;;;;11.93;5.60;;;5.80;92.90;;;5.72;77.51;99164.03;5062238;28;20102;-84
2020/12/31 09:57:57;;;;;;;10.60;6.05;;;5.80;93.20;;;5.77;77.63;99167.03;5072341;28;20467;-84
2020/12/31 10:00:24;;;;;;;8.98;6.05;;;5.70;92.90;;;5.82;77.39;99164.56;5071736;28;20059;-85
2020/12/31 10:02:52;;;;;;;9.63;5.65;;;5.70;93.20;;;5.81;77.62;99159.41;5070784;28;20037;-84
2020/12/31 10:05:19;;;;;;;9.55;5.82;;;5.80;93.20;;;5.76;77.00;99159.94;5071303;28;20135;-84
2020/12/31 10:07:45;;;;;;;8.65;5.68;;;5.80;92.70;;;5.72;76.86;99163.22;5072045;28;20033;-85
2020/12/31 10:10:12;;;;;;;11.20;5.70;;;5.80;92.40;;;5.75;77.10;99157.41;5067626;28;20143;-84
2020/12/31 10:12:39;;;;;;;8.82;5.60;;;5.80;92.40;;;5.73;77.22;99152.22;5066297;28;20075;-84
2020/12/31 10:15:06;;;;;;;8.70;5.47;;;5.80;92.10;;;5.76;77.19;99153.72;5072497;28;20071;-84
2020/12/31 10:17:33;;;;;;;9.60;5.95;;;5.80;92.30;;;5.77;77.26;99149.97;5072083;28;21090;-85
2020/12/31 10:20:01;;;;;;;9.30;5.70;;;5.80;92.70;;;5.75;76.94;99152.88;5067807;28;20060;-85
2020/12/31 10:22:28;;;;;;;8.27;5.53;;;5.90;92.30;;;5.76;77.26;99149.13;5065558;28;20101;-85
2020/12/31 10:24:55;;;;;;;10.32;5.90;;;5.90;92.50;;;5.84;77.15;99140.94;5065731;28;20566;-85
2020/12/31 10:27:21;;;;;;;8.65;5.53;;;5.90;92.60;;;5.87;77.32;99145.13;5063284;28;20072;-85
2020/12/31 10:29:48;;;;;;;8.20;5.15;;;5.90;92.80;;;5.90;77.33;99139.34;5064035;28;20420;-84
2020/12/31 10:32:15;;;;;;;9.80;6.47;;;5.90;93.00;;;5.91;77.08;99146.44;5072618;28;20446;-84
2020/12/31 10:34:42;;;;;;;10.98;7.07;;;5.90;92.90;;;5.94;77.16;99143.38;5072541;28;20068;-84
2020/12/31 10:37:10;;;;;;;14.82;8.95;;;5.90;93.20;;;5.92;77.58;99136.47;5071037;28;20098;-85